sensor_id;sensor_type;location;lat;lon;timestamp;temperature;humidity
21193;DHT22;10754;51.106;7.164;2023-07-13T00:00:46;22.90;99.90
21193;DHT22;10754;51.106;7.164;2023-07-13T00:03:12;22.80;99.90
21193;DHT22;10754;51.106;7.164;2023-07-13T00:05:39;22.80;99.90
21193;DHT22;10754;51.106;7.164;2023-07-13T00:08:05;22.70;99.90
21193;DHT22;10754;51.106;7.164;2023-07-13T00:10:30;22.70;99.90
21193;DHT22;10754;51.106;7.164;2023-07-13T00:12:55;22.70;99.90
21193;DHT22;10754;51.106;7.164;2023-07-13T00:15:24;22.60;99.90
21193;DHT22;10754;51.106;7.164;2023-07-13T00:17:54;22.60;99.90
21193;DHT22;10754;51.106;7.164;2023-07-13T00:20:21;22.50;99.90
21193;DHT22;10754;51.106;7.164;2023-07-13T00:22:48;22.50;99.90
21193;DHT22;10754;51.106;7.164;2023-07-13T00:25:14;22.40;99.90
21193;DHT22;10754;51.106;7.164;2023-07-13T00:27:41;22.40;99.90
21193;DHT22;10754;51.106;7.164;2023-07-13T00:30:07;22.40;99.90
21193;DHT22;10754;51.106;7.164;2023-07-13T00:32:34;22.30;99.90
21193;DHT22;10754;51.106;7.164;2023-07-13T00:35:00;22.20;99.90
21193;DHT22;10754;51.106;7.164;2023-07-13T00:37:26;22.20;99.90
21193;DHT22;10754;51.106;7.164;2023-07-13T00:39:51;22.20;99.90
21193;DHT22;10754;51.106;7.164;2023-07-13T00:42:17;22.20;99.90
21193;DHT22;10754;51.106;7.164;2023-07-13T00:45:01;22.10;99.90
21193;DHT22;10754;51.106;7.164;2023-07-13T00:47:27;22.10;99.90
21193;DHT22;10754;51.106;7.164;2023-07-13T00:49:52;22.00;99.90
21193;DHT22;10754;51.106;7.164;2023-07-13T00:52:18;22.00;99.90
21193;DHT22;10754;51.106;7.164;2023-07-13T00:54:45;21.90;99.90
21193;DHT22;10754;51.106;7.164;2023-07-13T00:57:15;21.90;99.90
21193;DHT22;10754;51.106;7.164;2023-07-13T00:59:45;21.80;99.90
21193;DHT22;10754;51.106;7.164;2023-07-13T01:02:11;21.80;99.90
21193;DHT22;10754;51.106;7.164;2023-07-13T01:04:37;21.80;99.90
21193;DHT22;10754;51.106;7.164;2023-07-13T01:07:04;21.70;99.90
21193;DHT22;10754;51.106;7.164;2023-07-13T01:09:30;21.70;99.90
21193;DHT22;10754;51.106;7.164;2023-07-13T01:11:55;21.70;99.90
21193;DHT22;10754;51.106;7.164;2023-07-13T01:14:21;21.60;99.90
21193;DHT22;10754;51.106;7.164;2023-07-13T01:16:47;21.50;99.90
21193;DHT22;10754;51.106;7.164;2023-07-13T01:19:53;21.50;99.90
21193;DHT22;10754;51.106;7.164;2023-07-13T01:22:18;21.50;99.90
21193;DHT22;10754;51.106;7.164;2023-07-13T01:24:46;21.40;99.90
21193;DHT22;10754;51.106;7.164;2023-07-13T01:27:15;21.40;99.90
21193;DHT22;10754;51.106;7.164;2023-07-13T01:29:45;21.40;99.90
21193;DHT22;10754;51.106;7.164;2023-07-13T01:32:15;21.30;99.90
21193;DHT22;10754;51.106;7.164;2023-07-13T01:34:41;21.30;99.90
21193;DHT22;10754;51.106;7.164;2023-07-13T01:37:11;21.30;99.90
21193;DHT22;10754;51.106;7.164;2023-07-13T01:39:37;21.30;99.90
21193;DHT22;10754;51.106;7.164;2023-07-13T01:42:03;21.20;99.90
21193;DHT22;10754;51.106;7.164;2023-07-13T01:44:29;21.20;99.90
21193;DHT22;10754;51.106;7.164;2023-07-13T01:46:54;21.20;99.90
21193;DHT22;10754;51.106;7.164;2023-07-13T01:49:20;21.20;99.90
21193;DHT22;10754;51.106;7.164;2023-07-13T01:51:46;21.20;99.90
21193;DHT22;10754;51.106;7.164;2023-07-13T01:54:11;21.20;99.90
21193;DHT22;10754;51.106;7.164;2023-07-13T01:56:37;21.20;99.90
21193;DHT22;10754;51.106;7.164;2023-07-13T01:59:02;21.10;99.90
21193;DHT22;10754;51.106;7.164;2023-07-13T02:01:28;21.10;99.90
21193;DHT22;10754;51.106;7.164;2023-07-13T02:03:53;21.10;99.90
21193;DHT22;10754;51.106;7.164;2023-07-13T02:06:19;21.10;99.90
21193;DHT22;10754;51.106;7.164;2023-07-13T02:08:44;21.10;99.90
21193;DHT22;10754;51.106;7.164;2023-07-13T02:11:10;21.10;99.90
21193;DHT22;10754;51.106;7.164;2023-07-13T02:13:36;21.10;99.90
21193;DHT22;10754;51.106;7.164;2023-07-13T02:16:02;21.00;99.90
21193;DHT22;10754;51.106;7.164;2023-07-13T02:18:27;21.00;99.90
21193;DHT22;10754;51.106;7.164;2023-07-13T02:20:53;21.00;99.90
21193;DHT22;10754;51.106;7.164;2023-07-13T02:23:18;21.00;99.90
21193;DHT22;10754;51.106;7.164;2023-07-13T02:25:44;21.00;99.90
21193;DHT22;10754;51.106;7.164;2023-07-13T02:28:10;20.90;99.90
21193;DHT22;10754;51.106;7.164;2023-07-13T02:30:36;20.90;99.90
21193;DHT22;10754;51.106;7.164;2023-07-13T02:33:01;20.90;99.90
21193;DHT22;10754;51.106;7.164;2023-07-13T02:35:27;20.90;99.90
21193;DHT22;10754;51.106;7.164;2023-07-13T02:37:53;20.80;99.90
21193;DHT22;10754;51.106;7.164;2023-07-13T02:40:18;20.80;99.90
21193;DHT22;10754;51.106;7.164;2023-07-13T02:42:44;20.80;99.90
21193;DHT22;10754;51.106;7.164;2023-07-13T02:45:09;20.80;99.90
21193;DHT22;10754;51.106;7.164;2023-07-13T02:47:36;20.70;99.90
21193;DHT22;10754;51.106;7.164;2023-07-13T02:50:02;20.80;99.90
21193;DHT22;10754;51.106;7.164;2023-07-13T02:52:28;20.70;99.90
21193;DHT22;10754;51.106;7.164;2023-07-13T02:54:53;20.70;99.90
21193;DHT22;10754;51.106;7.164;2023-07-13T02:57:19;20.70;99.90
21193;DHT22;10754;51.106;7.164;2023-07-13T02:59:44;20.70;99.90
21193;DHT22;10754;51.106;7.164;2023-07-13T03:02:10;20.70;99.90
21193;DHT22;10754;51.106;7.164;2023-07-13T03:04:36;20.70;99.90
21193;DHT22;10754;51.106;7.164;2023-07-13T03:07:03;20.70;99.90
21193;DHT22;10754;51.106;7.164;2023-07-13T03:09:29;20.70;99.90
21193;DHT22;10754;51.106;7.164;2023-07-13T03:11:55;20.70;99.90
21193;DHT22;10754;51.106;7.164;2023-07-13T03:14:22;20.70;99.90
21193;DHT22;10754;51.106;7.164;2023-07-13T03:16:48;20.70;99.90
21193;DHT22;10754;51.106;7.164;2023-07-13T03:19:14;20.60;99.90
21193;DHT22;10754;51.106;7.164;2023-07-13T03:21:39;20.60;99.90
21193;DHT22;10754;51.106;7.164;2023-07-13T03:24:05;20.50;99.90
21193;DHT22;10754;51.106;7.164;2023-07-13T03:26:31;20.50;99.90
21193;DHT22;10754;51.106;7.164;2023-07-13T03:28:57;20.60;99.90
21193;DHT22;10754;51.106;7.164;2023-07-13T03:31:26;20.60;99.90
21193;DHT22;10754;51.106;7.164;2023-07-13T03:33:52;20.60;99.90
21193;DHT22;10754;51.106;7.164;2023-07-13T03:36:20;20.50;99.90
21193;DHT22;10754;51.106;7.164;2023-07-13T03:38:48;20.50;99.90
21193;DHT22;10754;51.106;7.164;2023-07-13T03:41:15;20.50;99.90
21193;DHT22;10754;51.106;7.164;2023-07-13T03:43:40;20.50;99.90
21193;DHT22;10754;51.106;7.164;2023-07-13T03:46:06;20.50;99.90
21193;DHT22;10754;51.106;7.164;2023-07-13T03:48:31;20.50;99.90
21193;DHT22;10754;51.106;7.164;2023-07-13T03:50:57;20.50;99.90
21193;DHT22;10754;51.106;7.164;2023-07-13T03:53:22;20.50;99.90
21193;DHT22;10754;51.106;7.164;2023-07-13T03:55:48;20.50;99.90
21193;DHT22;10754;51.106;7.164;2023-07-13T04:00:52;20.50;99.90
21193;DHT22;10754;51.106;7.164;2023-07-13T04:03:18;20.40;99.90
21193;DHT22;10754;51.106;7.164;2023-07-13T04:05:43;20.40;99.90
21193;DHT22;10754;51.106;7.164;2023-07-13T04:08:09;20.40;99.90
21193;DHT22;10754;51.106;7.164;2023-07-13T04:10:34;20.40;99.90
21193;DHT22;10754;51.106;7.164;2023-07-13T04:13:00;20.40;99.90
21193;DHT22;10754;51.106;7.164;2023-07-13T04:15:28;20.40;99.90
21193;DHT22;10754;51.106;7.164;2023-07-13T04:17:54;20.40;99.90
21193;DHT22;10754;51.106;7.164;2023-07-13T04:20:19;20.50;99.90
21193;DHT22;10754;51.106;7.164;2023-07-13T04:22:45;20.50;99.90
21193;DHT22;10754;51.106;7.164;2023-07-13T04:25:11;20.50;99.90
21193;DHT22;10754;51.106;7.164;2023-07-13T04:27:36;20.40;99.90
21193;DHT22;10754;51.106;7.164;2023-07-13T04:30:02;20.40;99.90
21193;DHT22;10754;51.106;7.164;2023-07-13T04:32:28;20.40;99.90
21193;DHT22;10754;51.106;7.164;2023-07-13T04:34:53;20.50;99.90
21193;DHT22;10754;51.106;7.164;2023-07-13T04:37:21;20.50;99.90
21193;DHT22;10754;51.106;7.164;2023-07-13T04:39:46;20.50;99.90
21193;DHT22;10754;51.106;7.164;2023-07-13T04:42:12;20.50;99.90
21193;DHT22;10754;51.106;7.164;2023-07-13T04:44:37;20.50;99.90
21193;DHT22;10754;51.106;7.164;2023-07-13T04:47:03;20.50;99.90
21193;DHT22;10754;51.106;7.164;2023-07-13T04:49:29;20.40;99.90
21193;DHT22;10754;51.106;7.164;2023-07-13T04:51:54;20.40;99.90
21193;DHT22;10754;51.106;7.164;2023-07-13T04:54:20;20.50;99.90
21193;DHT22;10754;51.106;7.164;2023-07-13T04:56:46;20.50;99.90
21193;DHT22;10754;51.106;7.164;2023-07-13T04:59:11;20.40;99.90
21193;DHT22;10754;51.106;7.164;2023-07-13T05:01:37;20.30;99.90
21193;DHT22;10754;51.106;7.164;2023-07-13T05:04:02;20.30;99.90
21193;DHT22;10754;51.106;7.164;2023-07-13T05:06:28;20.50;99.90
21193;DHT22;10754;51.106;7.164;2023-07-13T05:08:55;20.70;99.90
21193;DHT22;10754;51.106;7.164;2023-07-13T05:11:21;20.70;99.90
21193;DHT22;10754;51.106;7.164;2023-07-13T05:13:47;20.60;99.90
21193;DHT22;10754;51.106;7.164;2023-07-13T05:16:12;20.70;99.90
21193;DHT22;10754;51.106;7.164;2023-07-13T05:18:38;20.70;99.90
21193;DHT22;10754;51.106;7.164;2023-07-13T05:21:06;20.60;99.90
21193;DHT22;10754;51.106;7.164;2023-07-13T05:23:33;20.50;99.90
21193;DHT22;10754;51.106;7.164;2023-07-13T05:26:00;20.60;99.90
21193;DHT22;10754;51.106;7.164;2023-07-13T05:28:26;20.70;99.90
21193;DHT22;10754;51.106;7.164;2023-07-13T05:30:52;20.80;99.90
21193;DHT22;10754;51.106;7.164;2023-07-13T05:33:19;20.90;99.90
21193;DHT22;10754;51.106;7.164;2023-07-13T05:35:45;20.90;99.90
21193;DHT22;10754;51.106;7.164;2023-07-13T05:38:10;20.70;99.90
21193;DHT22;10754;51.106;7.164;2023-07-13T05:40:36;20.70;99.90
21193;DHT22;10754;51.106;7.164;2023-07-13T05:43:01;20.50;99.90
21193;DHT22;10754;51.106;7.164;2023-07-13T05:45:27;20.50;99.90
21193;DHT22;10754;51.106;7.164;2023-07-13T05:47:52;20.70;99.90
21193;DHT22;10754;51.106;7.164;2023-07-13T05:50:18;20.80;99.90
21193;DHT22;10754;51.106;7.164;2023-07-13T05:52:44;20.80;99.90
21193;DHT22;10754;51.106;7.164;2023-07-13T05:55:09;21.00;99.90
21193;DHT22;10754;51.106;7.164;2023-07-13T05:57:35;21.10;99.90
21193;DHT22;10754;51.106;7.164;2023-07-13T06:00:00;20.90;99.90
21193;DHT22;10754;51.106;7.164;2023-07-13T06:02:27;21.00;99.90
21193;DHT22;10754;51.106;7.164;2023-07-13T06:04:52;21.00;99.90
21193;DHT22;10754;51.106;7.164;2023-07-13T06:07:18;21.10;99.90
21193;DHT22;10754;51.106;7.164;2023-07-13T06:09:43;21.10;99.90
21193;DHT22;10754;51.106;7.164;2023-07-13T06:12:09;21.10;99.90
21193;DHT22;10754;51.106;7.164;2023-07-13T06:14:34;21.10;99.90
21193;DHT22;10754;51.106;7.164;2023-07-13T06:17:00;21.20;99.90
21193;DHT22;10754;51.106;7.164;2023-07-13T06:19:25;21.10;99.90
21193;DHT22;10754;51.106;7.164;2023-07-13T06:21:51;20.90;99.90
21193;DHT22;10754;51.106;7.164;2023-07-13T06:24:16;21.00;99.90
21193;DHT22;10754;51.106;7.164;2023-07-13T06:26:42;21.00;99.90
21193;DHT22;10754;51.106;7.164;2023-07-13T06:29:08;21.10;99.90
21193;DHT22;10754;51.106;7.164;2023-07-13T06:31:33;21.10;99.90
21193;DHT22;10754;51.106;7.164;2023-07-13T06:33:59;21.10;99.90
21193;DHT22;10754;51.106;7.164;2023-07-13T06:36:24;21.10;99.90
21193;DHT22;10754;51.106;7.164;2023-07-13T06:38:50;21.20;99.90
21193;DHT22;10754;51.106;7.164;2023-07-13T06:41:15;21.40;99.90
21193;DHT22;10754;51.106;7.164;2023-07-13T06:43:41;21.40;99.90
21193;DHT22;10754;51.106;7.164;2023-07-13T06:46:07;21.40;99.90
21193;DHT22;10754;51.106;7.164;2023-07-13T06:48:33;21.20;99.90
21193;DHT22;10754;51.106;7.164;2023-07-13T06:50:58;21.40;99.90
21193;DHT22;10754;51.106;7.164;2023-07-13T06:53:24;21.30;99.90
21193;DHT22;10754;51.106;7.164;2023-07-13T06:55:50;21.30;99.90
21193;DHT22;10754;51.106;7.164;2023-07-13T06:58:17;21.40;99.90
21193;DHT22;10754;51.106;7.164;2023-07-13T07:00:43;21.50;99.90
21193;DHT22;10754;51.106;7.164;2023-07-13T07:03:08;21.40;99.90
21193;DHT22;10754;51.106;7.164;2023-07-13T07:05:34;21.50;99.90
21193;DHT22;10754;51.106;7.164;2023-07-13T07:07:59;21.50;99.90
21193;DHT22;10754;51.106;7.164;2023-07-13T07:10:25;21.50;99.90
21193;DHT22;10754;51.106;7.164;2023-07-13T07:12:51;21.50;99.90
21193;DHT22;10754;51.106;7.164;2023-07-13T07:15:17;21.60;99.90
21193;DHT22;10754;51.106;7.164;2023-07-13T07:17:43;21.70;99.90
21193;DHT22;10754;51.106;7.164;2023-07-13T07:20:09;21.70;99.90
21193;DHT22;10754;51.106;7.164;2023-07-13T07:22:35;21.80;99.90
21193;DHT22;10754;51.106;7.164;2023-07-13T07:25:00;21.90;99.90
21193;DHT22;10754;51.106;7.164;2023-07-13T07:27:26;22.00;99.90
21193;DHT22;10754;51.106;7.164;2023-07-13T07:29:51;22.10;99.90
21193;DHT22;10754;51.106;7.164;2023-07-13T07:32:18;22.30;99.90
21193;DHT22;10754;51.106;7.164;2023-07-13T07:34:44;22.60;99.90
21193;DHT22;10754;51.106;7.164;2023-07-13T07:37:11;22.70;99.90
21193;DHT22;10754;51.106;7.164;2023-07-13T07:39:37;22.70;99.90
21193;DHT22;10754;51.106;7.164;2023-07-13T07:42:03;22.80;99.90
21193;DHT22;10754;51.106;7.164;2023-07-13T07:44:30;22.80;99.90
21193;DHT22;10754;51.106;7.164;2023-07-13T07:46:56;22.90;99.90
21193;DHT22;10754;51.106;7.164;2023-07-13T07:49:22;22.90;99.90
21193;DHT22;10754;51.106;7.164;2023-07-13T07:51:47;22.90;99.90
21193;DHT22;10754;51.106;7.164;2023-07-13T07:54:13;23.00;99.90
21193;DHT22;10754;51.106;7.164;2023-07-13T07:56:40;23.00;99.90
21193;DHT22;10754;51.106;7.164;2023-07-13T07:59:05;23.10;99.90
21193;DHT22;10754;51.106;7.164;2023-07-13T08:01:31;23.10;99.90
21193;DHT22;10754;51.106;7.164;2023-07-13T08:03:56;23.30;99.90
21193;DHT22;10754;51.106;7.164;2023-07-13T08:06:22;23.20;99.90
21193;DHT22;10754;51.106;7.164;2023-07-13T08:08:48;23.20;99.90
21193;DHT22;10754;51.106;7.164;2023-07-13T08:11:14;23.30;99.90
21193;DHT22;10754;51.106;7.164;2023-07-13T08:13:39;23.30;99.90
21193;DHT22;10754;51.106;7.164;2023-07-13T08:16:05;23.30;99.90
21193;DHT22;10754;51.106;7.164;2023-07-13T08:18:32;23.40;99.90
21193;DHT22;10754;51.106;7.164;2023-07-13T08:20:57;23.60;99.90
21193;DHT22;10754;51.106;7.164;2023-07-13T08:23:24;23.60;99.90
21193;DHT22;10754;51.106;7.164;2023-07-13T08:25:53;23.70;99.90
21193;DHT22;10754;51.106;7.164;2023-07-13T08:28:20;23.70;99.90
21193;DHT22;10754;51.106;7.164;2023-07-13T08:30:46;23.90;99.90
21193;DHT22;10754;51.106;7.164;2023-07-13T08:33:18;23.80;99.90
21193;DHT22;10754;51.106;7.164;2023-07-13T08:35:46;23.50;99.90
21193;DHT22;10754;51.106;7.164;2023-07-13T08:38:12;23.60;99.90
21193;DHT22;10754;51.106;7.164;2023-07-13T08:40:39;23.70;99.90
21193;DHT22;10754;51.106;7.164;2023-07-13T08:43:04;23.90;99.90
21193;DHT22;10754;51.106;7.164;2023-07-13T08:48:21;24.10;99.90
21193;DHT22;10754;51.106;7.164;2023-07-13T08:53:58;24.30;99.90
21193;DHT22;10754;51.106;7.164;2023-07-13T08:56:27;24.40;99.90
21193;DHT22;10754;51.106;7.164;2023-07-13T08:58:57;24.50;99.90
21193;DHT22;10754;51.106;7.164;2023-07-13T09:04:21;24.30;99.90
21193;DHT22;10754;51.106;7.164;2023-07-13T09:09:42;24.40;99.90
21193;DHT22;10754;51.106;7.164;2023-07-13T09:12:25;24.50;99.90
21193;DHT22;10754;51.106;7.164;2023-07-13T09:14:54;24.50;99.90
21193;DHT22;10754;51.106;7.164;2023-07-13T09:17:25;24.50;99.90
21193;DHT22;10754;51.106;7.164;2023-07-13T09:20:10;24.50;99.90
21193;DHT22;10754;51.106;7.164;2023-07-13T09:22:40;24.60;99.90
21193;DHT22;10754;51.106;7.164;2023-07-13T09:27:53;24.70;99.90
21193;DHT22;10754;51.106;7.164;2023-07-13T09:30:32;25.00;99.90
21193;DHT22;10754;51.106;7.164;2023-07-13T09:32:58;24.80;99.90
21193;DHT22;10754;51.106;7.164;2023-07-13T09:35:29;24.80;99.90
21193;DHT22;10754;51.106;7.164;2023-07-13T09:38:17;24.70;99.90
21193;DHT22;10754;51.106;7.164;2023-07-13T09:43:27;24.60;99.90
21193;DHT22;10754;51.106;7.164;2023-07-13T09:45:55;24.60;99.90
21193;DHT22;10754;51.106;7.164;2023-07-13T09:48:21;24.60;99.90
21193;DHT22;10754;51.106;7.164;2023-07-13T09:50:47;24.60;99.90
21193;DHT22;10754;51.106;7.164;2023-07-13T09:53:15;24.70;99.90
21193;DHT22;10754;51.106;7.164;2023-07-13T09:55:42;24.80;99.90
21193;DHT22;10754;51.106;7.164;2023-07-13T10:00:44;24.80;99.90
21193;DHT22;10754;51.106;7.164;2023-07-13T10:03:23;25.00;99.90
21193;DHT22;10754;51.106;7.164;2023-07-13T10:05:51;25.10;99.90
21193;DHT22;10754;51.106;7.164;2023-07-13T10:08:23;25.40;99.90
21193;DHT22;10754;51.106;7.164;2023-07-13T10:10:54;25.10;99.90
21193;DHT22;10754;51.106;7.164;2023-07-13T10:13:29;25.00;99.90
21193;DHT22;10754;51.106;7.164;2023-07-13T10:15:55;25.00;99.90
21193;DHT22;10754;51.106;7.164;2023-07-13T10:18:23;24.90;99.90
21193;DHT22;10754;51.106;7.164;2023-07-13T10:20:54;24.90;99.90
21193;DHT22;10754;51.106;7.164;2023-07-13T10:23:31;24.90;99.90
21193;DHT22;10754;51.106;7.164;2023-07-13T10:25:59;25.20;99.90
21193;DHT22;10754;51.106;7.164;2023-07-13T10:28:37;25.10;99.90
21193;DHT22;10754;51.106;7.164;2023-07-13T10:31:07;25.30;99.90
21193;DHT22;10754;51.106;7.164;2023-07-13T10:33:35;25.40;99.90
21193;DHT22;10754;51.106;7.164;2023-07-13T10:38:38;25.80;99.90
21193;DHT22;10754;51.106;7.164;2023-07-13T10:41:07;25.80;99.90
21193;DHT22;10754;51.106;7.164;2023-07-13T10:43:39;26.10;99.90
21193;DHT22;10754;51.106;7.164;2023-07-13T10:46:08;26.30;99.90
21193;DHT22;10754;51.106;7.164;2023-07-13T10:48:35;26.50;99.90
21193;DHT22;10754;51.106;7.164;2023-07-13T10:51:04;26.70;99.90
21193;DHT22;10754;51.106;7.164;2023-07-13T10:53:33;27.00;99.90
21193;DHT22;10754;51.106;7.164;2023-07-13T10:56:05;27.10;99.90
21193;DHT22;10754;51.106;7.164;2023-07-13T10:58:34;27.00;99.90
21193;DHT22;10754;51.106;7.164;2023-07-13T11:08:51;27.30;99.90
21193;DHT22;10754;51.106;7.164;2023-07-13T11:18:51;27.00;99.90
21193;DHT22;10754;51.106;7.164;2023-07-13T11:21:19;27.00;99.90
21193;DHT22;10754;51.106;7.164;2023-07-13T11:23:51;26.70;99.90
21193;DHT22;10754;51.106;7.164;2023-07-13T11:26:40;26.60;99.90
21193;DHT22;10754;51.106;7.164;2023-07-13T11:31:41;26.60;99.90
21193;DHT22;10754;51.106;7.164;2023-07-13T11:34:24;26.70;99.90
21193;DHT22;10754;51.106;7.164;2023-07-13T11:36:50;26.80;99.90
21193;DHT22;10754;51.106;7.164;2023-07-13T11:39:18;27.00;99.90
21193;DHT22;10754;51.106;7.164;2023-07-13T11:41:53;27.00;99.90
21193;DHT22;10754;51.106;7.164;2023-07-13T11:44:23;27.10;99.90
21193;DHT22;10754;51.106;7.164;2023-07-13T11:46:54;27.30;99.90
21193;DHT22;10754;51.106;7.164;2023-07-13T11:49:22;27.40;99.90
21193;DHT22;10754;51.106;7.164;2023-07-13T11:51:48;27.30;99.90
21193;DHT22;10754;51.106;7.164;2023-07-13T11:54:31;27.10;99.90
21193;DHT22;10754;51.106;7.164;2023-07-13T11:57:16;27.00;99.90
21193;DHT22;10754;51.106;7.164;2023-07-13T11:59:44;26.90;99.90
21193;DHT22;10754;51.106;7.164;2023-07-13T12:02:28;26.80;99.90
21193;DHT22;10754;51.106;7.164;2023-07-13T12:04:54;26.60;99.90
21193;DHT22;10754;51.106;7.164;2023-07-13T12:07:19;26.80;99.90
21193;DHT22;10754;51.106;7.164;2023-07-13T12:09:46;26.90;99.90
21193;DHT22;10754;51.106;7.164;2023-07-13T12:12:13;27.40;99.90
21193;DHT22;10754;51.106;7.164;2023-07-13T12:14:40;27.80;99.90
21193;DHT22;10754;51.106;7.164;2023-07-13T12:17:19;27.70;99.90
21193;DHT22;10754;51.106;7.164;2023-07-13T12:19:47;27.40;99.90
21193;DHT22;10754;51.106;7.164;2023-07-13T12:22:14;27.10;99.90
21193;DHT22;10754;51.106;7.164;2023-07-13T12:24:41;26.90;99.90
21193;DHT22;10754;51.106;7.164;2023-07-13T12:27:25;26.90;99.90
21193;DHT22;10754;51.106;7.164;2023-07-13T12:30:30;27.00;99.90
21193;DHT22;10754;51.106;7.164;2023-07-13T12:33:05;27.90;99.90
21193;DHT22;10754;51.106;7.164;2023-07-13T12:35:40;28.70;99.90
21193;DHT22;10754;51.106;7.164;2023-07-13T12:38:10;29.30;99.90
21193;DHT22;10754;51.106;7.164;2023-07-13T12:40:36;30.10;99.90
21193;DHT22;10754;51.106;7.164;2023-07-13T12:43:03;30.70;99.90
21193;DHT22;10754;51.106;7.164;2023-07-13T12:45:32;31.00;99.90
21193;DHT22;10754;51.106;7.164;2023-07-13T12:48:10;31.60;99.90
21193;DHT22;10754;51.106;7.164;2023-07-13T12:50:40;30.20;99.90
21193;DHT22;10754;51.106;7.164;2023-07-13T12:53:13;31.70;99.90
21193;DHT22;10754;51.106;7.164;2023-07-13T12:55:51;33.20;99.90
21193;DHT22;10754;51.106;7.164;2023-07-13T13:00:54;30.60;99.90
21193;DHT22;10754;51.106;7.164;2023-07-13T13:03:29;29.90;99.90
21193;DHT22;10754;51.106;7.164;2023-07-13T13:05:59;29.70;99.90
21193;DHT22;10754;51.106;7.164;2023-07-13T13:08:26;29.00;99.90
21193;DHT22;10754;51.106;7.164;2023-07-13T13:10:51;28.70;99.90
21193;DHT22;10754;51.106;7.164;2023-07-13T13:13:17;28.30;99.90
21193;DHT22;10754;51.106;7.164;2023-07-13T13:15:42;28.50;99.90
21193;DHT22;10754;51.106;7.164;2023-07-13T13:18:20;30.20;99.90
21193;DHT22;10754;51.106;7.164;2023-07-13T13:20:47;30.90;99.90
21193;DHT22;10754;51.106;7.164;2023-07-13T13:23:14;30.80;99.90
21193;DHT22;10754;51.106;7.164;2023-07-13T13:25:43;29.90;99.90
21193;DHT22;10754;51.106;7.164;2023-07-13T13:28:14;29.90;99.90
21193;DHT22;10754;51.106;7.164;2023-07-13T13:30:42;30.70;99.90
21193;DHT22;10754;51.106;7.164;2023-07-13T13:33:10;31.10;99.90
21193;DHT22;10754;51.106;7.164;2023-07-13T13:35:37;31.80;99.90
21193;DHT22;10754;51.106;7.164;2023-07-13T13:38:14;31.50;99.90
21193;DHT22;10754;51.106;7.164;2023-07-13T13:40:41;30.60;99.90
21193;DHT22;10754;51.106;7.164;2023-07-13T13:43:26;31.00;99.90
21193;DHT22;10754;51.106;7.164;2023-07-13T13:45:56;31.40;99.90
21193;DHT22;10754;51.106;7.164;2023-07-13T13:48:34;31.00;99.90
21193;DHT22;10754;51.106;7.164;2023-07-13T13:51:13;31.70;99.90
21193;DHT22;10754;51.106;7.164;2023-07-13T13:53:39;32.20;99.90
21193;DHT22;10754;51.106;7.164;2023-07-13T13:56:05;32.40;99.90
21193;DHT22;10754;51.106;7.164;2023-07-13T13:58:30;32.10;99.90
21193;DHT22;10754;51.106;7.164;2023-07-13T14:00:56;31.60;99.90
21193;DHT22;10754;51.106;7.164;2023-07-13T14:03:23;31.70;99.90
21193;DHT22;10754;51.106;7.164;2023-07-13T14:05:49;32.30;99.90
21193;DHT22;10754;51.106;7.164;2023-07-13T14:08:16;31.90;99.90
21193;DHT22;10754;51.106;7.164;2023-07-13T14:10:43;31.20;99.90
21193;DHT22;10754;51.106;7.164;2023-07-13T14:13:26;30.70;99.90
21193;DHT22;10754;51.106;7.164;2023-07-13T14:15:53;30.10;99.90
21193;DHT22;10754;51.106;7.164;2023-07-13T14:18:19;30.90;99.90
21193;DHT22;10754;51.106;7.164;2023-07-13T14:20:47;31.70;99.90
21193;DHT22;10754;51.106;7.164;2023-07-13T14:23:14;31.90;99.90
21193;DHT22;10754;51.106;7.164;2023-07-13T14:25:40;30.90;99.90
21193;DHT22;10754;51.106;7.164;2023-07-13T14:28:25;30.90;99.90
21193;DHT22;10754;51.106;7.164;2023-07-13T14:30:52;31.20;99.90
21193;DHT22;10754;51.106;7.164;2023-07-13T14:33:18;30.50;99.90
21193;DHT22;10754;51.106;7.164;2023-07-13T14:35:44;30.10;99.90
21193;DHT22;10754;51.106;7.164;2023-07-13T14:38:18;29.90;99.90
21193;DHT22;10754;51.106;7.164;2023-07-13T14:40:44;29.90;99.90
21193;DHT22;10754;51.106;7.164;2023-07-13T14:43:14;29.60;99.90
21193;DHT22;10754;51.106;7.164;2023-07-13T14:45:46;29.40;99.90
21193;DHT22;10754;51.106;7.164;2023-07-13T14:48:23;29.10;99.90
21193;DHT22;10754;51.106;7.164;2023-07-13T14:50:58;29.00;99.90
21193;DHT22;10754;51.106;7.164;2023-07-13T14:53:26;28.90;99.90
21193;DHT22;10754;51.106;7.164;2023-07-13T14:55:53;28.80;99.90
21193;DHT22;10754;51.106;7.164;2023-07-13T14:58:19;28.60;99.90
21193;DHT22;10754;51.106;7.164;2023-07-13T15:00:44;28.70;99.90
21193;DHT22;10754;51.106;7.164;2023-07-13T15:03:20;28.70;99.90
21193;DHT22;10754;51.106;7.164;2023-07-13T15:05:50;28.60;99.90
21193;DHT22;10754;51.106;7.164;2023-07-13T15:08:16;28.50;99.90
21193;DHT22;10754;51.106;7.164;2023-07-13T15:10:41;28.40;99.90
21193;DHT22;10754;51.106;7.164;2023-07-13T15:13:20;28.50;99.90
21193;DHT22;10754;51.106;7.164;2023-07-13T15:15:53;28.50;99.90
21193;DHT22;10754;51.106;7.164;2023-07-13T15:18:21;28.50;99.90
21193;DHT22;10754;51.106;7.164;2023-07-13T15:20:48;28.50;99.90
21193;DHT22;10754;51.106;7.164;2023-07-13T15:23:16;28.30;99.90
21193;DHT22;10754;51.106;7.164;2023-07-13T15:25:43;28.10;99.90
21193;DHT22;10754;51.106;7.164;2023-07-13T15:28:09;28.10;99.90
21193;DHT22;10754;51.106;7.164;2023-07-13T15:30:40;27.80;99.90
21193;DHT22;10754;51.106;7.164;2023-07-13T15:33:13;27.80;99.90
21193;DHT22;10754;51.106;7.164;2023-07-13T15:35:39;27.70;99.90
21193;DHT22;10754;51.106;7.164;2023-07-13T15:38:13;27.60;99.90
21193;DHT22;10754;51.106;7.164;2023-07-13T15:40:39;27.50;99.90
21193;DHT22;10754;51.106;7.164;2023-07-13T15:43:13;27.50;99.90
21193;DHT22;10754;51.106;7.164;2023-07-13T15:45:39;27.30;99.90
21193;DHT22;10754;51.106;7.164;2023-07-13T15:48:18;27.10;99.90
21193;DHT22;10754;51.106;7.164;2023-07-13T15:50:52;27.20;99.90
21193;DHT22;10754;51.106;7.164;2023-07-13T15:53:24;27.10;99.90
21193;DHT22;10754;51.106;7.164;2023-07-13T15:55:50;27.10;99.90
21193;DHT22;10754;51.106;7.164;2023-07-13T15:58:16;27.00;99.90
21193;DHT22;10754;51.106;7.164;2023-07-13T16:00:42;26.90;99.90
21193;DHT22;10754;51.106;7.164;2023-07-13T16:03:08;26.80;99.90
21193;DHT22;10754;51.106;7.164;2023-07-13T16:05:34;26.70;99.90
21193;DHT22;10754;51.106;7.164;2023-07-13T16:08:00;26.60;99.90
21193;DHT22;10754;51.106;7.164;2023-07-13T16:10:37;26.60;99.90
21193;DHT22;10754;51.106;7.164;2023-07-13T16:13:04;26.60;99.90
21193;DHT22;10754;51.106;7.164;2023-07-13T16:15:32;26.40;99.90
21193;DHT22;10754;51.106;7.164;2023-07-13T16:17:58;26.40;99.90
21193;DHT22;10754;51.106;7.164;2023-07-13T16:20:23;26.20;99.90